Terminal Aerodrome Forecast
Issued by NWS Norman, OK

Home | Current Version | Previous Version | Text Only | Print | Product List | Glossary On
Versions: 1 2 3 4 5 6 7 8 9 10 11 12 13 14 15 16 17 18 19 20 21 22 23 24 25 26 27 28 29 30 31 32 33
000
FTUS44 KOUN 200116 AAA
TAFSPS
TAF AMD
KSPS 200116Z 2001/2024 13008KT 6SM -TSRA BR FEW024 BKN035 OVC110CB
      TEMPO 2001/2005 2SM TSRA BR OVC008CB
     FM200700 19010KT P6SM BKN100
     FM201600 22013KT P6SM SCT250=

USA.gov is the U.S. government's official web portal to all federal, state and local government web resources and services.